sensor_id;sensor_type;location;lat;lon;timestamp;P1;durP1;ratioP1;P2;durP2;ratioP2
33644;SDS011;19986;48.190;16.366;2022-08-03T00:00:05;22.83;;;21.73;;
33644;SDS011;19986;48.190;16.366;2022-08-03T00:02:31;23.70;;;22.40;;
33644;SDS011;19986;48.190;16.366;2022-08-03T00:04:57;23.23;;;22.13;;
33644;SDS011;19986;48.190;16.366;2022-08-03T00:07:23;24.08;;;22.88;;
33644;SDS011;19986;48.190;16.366;2022-08-03T00:09:49;23.30;;;22.13;;
33644;SDS011;19986;48.190;16.366;2022-08-03T00:12:15;24.55;;;23.35;;
33644;SDS011;19986;48.190;16.366;2022-08-03T00:14:41;22.85;;;21.65;;
33644;SDS011;19986;48.190;16.366;2022-08-03T00:17:07;23.98;;;22.77;;
33644;SDS011;19986;48.190;16.366;2022-08-03T00:19:33;25.00;;;23.60;;
33644;SDS011;19986;48.190;16.366;2022-08-03T00:21:59;24.20;;;22.95;;
33644;SDS011;19986;48.190;16.366;2022-08-03T00:24:24;24.77;;;23.45;;
33644;SDS011;19986;48.190;16.366;2022-08-03T00:26:50;24.42;;;23.13;;
33644;SDS011;19986;48.190;16.366;2022-08-03T00:29:16;25.42;;;24.02;;
33644;SDS011;19986;48.190;16.366;2022-08-03T00:31:42;24.45;;;23.10;;
33644;SDS011;19986;48.190;16.366;2022-08-03T00:34:08;23.52;;;22.42;;
33644;SDS011;19986;48.190;16.366;2022-08-03T00:36:34;25.67;;;24.40;;
33644;SDS011;19986;48.190;16.366;2022-08-03T00:38:59;24.83;;;23.63;;
33644;SDS011;19986;48.190;16.366;2022-08-03T00:41:25;23.08;;;21.88;;
33644;SDS011;19986;48.190;16.366;2022-08-03T00:43:51;24.83;;;23.70;;
33644;SDS011;19986;48.190;16.366;2022-08-03T00:46:17;24.00;;;22.65;;
33644;SDS011;19986;48.190;16.366;2022-08-03T00:48:45;23.60;;;22.50;;
33644;SDS011;19986;48.190;16.366;2022-08-03T00:51:11;24.08;;;22.85;;
33644;SDS011;19986;48.190;16.366;2022-08-03T00:53:37;23.15;;;22.00;;
33644;SDS011;19986;48.190;16.366;2022-08-03T00:56:03;24.05;;;22.75;;
33644;SDS011;19986;48.190;16.366;2022-08-03T00:58:29;23.50;;;22.33;;
33644;SDS011;19986;48.190;16.366;2022-08-03T01:00:56;23.98;;;22.77;;
33644;SDS011;19986;48.190;16.366;2022-08-03T01:03:23;24.30;;;23.20;;
33644;SDS011;19986;48.190;16.366;2022-08-03T01:05:57;24.42;;;23.33;;
33644;SDS011;19986;48.190;16.366;2022-08-03T01:08:53;24.30;;;22.90;;
33644;SDS011;19986;48.190;16.366;2022-08-03T01:14:24;25.23;;;23.92;;
33644;SDS011;19986;48.190;16.366;2022-08-03T01:17:13;23.90;;;22.70;;
33644;SDS011;19986;48.190;16.366;2022-08-03T01:19:59;25.45;;;24.23;;
33644;SDS011;19986;48.190;16.366;2022-08-03T01:25:45;24.90;;;23.70;;
33644;SDS011;19986;48.190;16.366;2022-08-03T01:28:27;24.33;;;22.88;;
33644;SDS011;19986;48.190;16.366;2022-08-03T01:31:12;24.88;;;23.58;;
33644;SDS011;19986;48.190;16.366;2022-08-03T01:33:43;24.67;;;23.38;;
33644;SDS011;19986;48.190;16.366;2022-08-03T01:36:18;23.73;;;22.63;;
33644;SDS011;19986;48.190;16.366;2022-08-03T01:38:50;25.92;;;24.63;;
33644;SDS011;19986;48.190;16.366;2022-08-03T01:41:24;23.55;;;22.45;;
33644;SDS011;19986;48.190;16.366;2022-08-03T01:43:58;24.38;;;23.17;;
33644;SDS011;19986;48.190;16.366;2022-08-03T01:46:27;24.60;;;23.42;;
33644;SDS011;19986;48.190;16.366;2022-08-03T01:48:56;23.70;;;22.50;;
33644;SDS011;19986;48.190;16.366;2022-08-03T01:51:23;23.92;;;22.83;;
33644;SDS011;19986;48.190;16.366;2022-08-03T01:53:49;26.35;;;24.98;;
33644;SDS011;19986;48.190;16.366;2022-08-03T01:56:21;25.08;;;23.88;;
33644;SDS011;19986;48.190;16.366;2022-08-03T01:58:48;24.83;;;23.50;;
33644;SDS011;19986;48.190;16.366;2022-08-03T02:01:17;23.83;;;22.67;;
33644;SDS011;19986;48.190;16.366;2022-08-03T02:03:45;25.27;;;23.88;;
33644;SDS011;19986;48.190;16.366;2022-08-03T02:06:12;24.08;;;22.88;;
33644;SDS011;19986;48.190;16.366;2022-08-03T02:08:39;25.25;;;23.95;;
33644;SDS011;19986;48.190;16.366;2022-08-03T02:11:07;25.27;;;24.08;;
33644;SDS011;19986;48.190;16.366;2022-08-03T02:13:34;25.08;;;23.80;;
33644;SDS011;19986;48.190;16.366;2022-08-03T02:16:03;24.80;;;23.60;;
33644;SDS011;19986;48.190;16.366;2022-08-03T02:18:30;24.50;;;23.17;;
33644;SDS011;19986;48.190;16.366;2022-08-03T02:21:01;25.67;;;24.42;;
33644;SDS011;19986;48.190;16.366;2022-08-03T02:23:29;25.58;;;24.38;;
33644;SDS011;19986;48.190;16.366;2022-08-03T02:26:00;25.58;;;24.38;;
33644;SDS011;19986;48.190;16.366;2022-08-03T02:28:36;26.20;;;24.80;;
33644;SDS011;19986;48.190;16.366;2022-08-03T02:31:06;25.45;;;24.25;;
33644;SDS011;19986;48.190;16.366;2022-08-03T02:33:40;22.98;;;21.88;;
33644;SDS011;19986;48.190;16.366;2022-08-03T02:36:09;25.38;;;23.95;;
33644;SDS011;19986;48.190;16.366;2022-08-03T02:38:37;25.55;;;24.25;;
33644;SDS011;19986;48.190;16.366;2022-08-03T02:41:08;24.27;;;22.98;;
33644;SDS011;19986;48.190;16.366;2022-08-03T02:43:42;25.80;;;24.55;;
33644;SDS011;19986;48.190;16.366;2022-08-03T02:46:13;24.67;;;23.30;;
33644;SDS011;19986;48.190;16.366;2022-08-03T02:48:44;23.88;;;22.58;;
33644;SDS011;19986;48.190;16.366;2022-08-03T02:51:12;25.17;;;23.88;;
33644;SDS011;19986;48.190;16.366;2022-08-03T02:53:39;23.40;;;22.10;;
33644;SDS011;19986;48.190;16.366;2022-08-03T02:56:06;23.33;;;22.23;;
33644;SDS011;19986;48.190;16.366;2022-08-03T02:58:33;25.55;;;24.35;;
33644;SDS011;19986;48.190;16.366;2022-08-03T03:01:01;24.02;;;22.83;;
33644;SDS011;19986;48.190;16.366;2022-08-03T03:03:27;24.38;;;23.05;;
33644;SDS011;19986;48.190;16.366;2022-08-03T03:05:54;25.13;;;23.92;;
33644;SDS011;19986;48.190;16.366;2022-08-03T03:08:20;24.20;;;22.80;;
33644;SDS011;19986;48.190;16.366;2022-08-03T03:10:47;24.70;;;23.35;;
33644;SDS011;19986;48.190;16.366;2022-08-03T03:13:14;25.58;;;24.38;;
33644;SDS011;19986;48.190;16.366;2022-08-03T03:15:42;24.63;;;23.42;;
33644;SDS011;19986;48.190;16.366;2022-08-03T03:18:08;24.67;;;23.33;;
33644;SDS011;19986;48.190;16.366;2022-08-03T03:20:35;25.15;;;23.75;;
33644;SDS011;19986;48.190;16.366;2022-08-03T03:23:03;24.52;;;23.38;;
33644;SDS011;19986;48.190;16.366;2022-08-03T03:25:30;23.30;;;22.20;;
33644;SDS011;19986;48.190;16.366;2022-08-03T03:27:58;26.17;;;24.67;;
33644;SDS011;19986;48.190;16.366;2022-08-03T03:30:25;26.20;;;24.75;;
33644;SDS011;19986;48.190;16.366;2022-08-03T03:32:51;25.67;;;24.25;;
33644;SDS011;19986;48.190;16.366;2022-08-03T03:35:18;25.25;;;23.85;;
33644;SDS011;19986;48.190;16.366;2022-08-03T03:37:44;26.13;;;24.85;;
33644;SDS011;19986;48.190;16.366;2022-08-03T03:40:10;26.52;;;25.05;;
33644;SDS011;19986;48.190;16.366;2022-08-03T03:42:36;26.95;;;25.63;;
33644;SDS011;19986;48.190;16.366;2022-08-03T03:45:03;24.63;;;23.33;;
33644;SDS011;19986;48.190;16.366;2022-08-03T03:47:33;25.27;;;24.00;;
33644;SDS011;19986;48.190;16.366;2022-08-03T03:50:03;26.88;;;25.42;;
33644;SDS011;19986;48.190;16.366;2022-08-03T03:52:30;25.42;;;24.08;;
33644;SDS011;19986;48.190;16.366;2022-08-03T03:54:56;25.58;;;24.33;;
33644;SDS011;19986;48.190;16.366;2022-08-03T03:57:22;26.30;;;24.80;;
33644;SDS011;19986;48.190;16.366;2022-08-03T03:59:48;25.35;;;24.05;;
33644;SDS011;19986;48.190;16.366;2022-08-03T04:02:14;26.05;;;24.85;;
33644;SDS011;19986;48.190;16.366;2022-08-03T04:04:40;25.77;;;24.40;;
33644;SDS011;19986;48.190;16.366;2022-08-03T04:08:15;26.80;;;25.40;;
33644;SDS011;19986;48.190;16.366;2022-08-03T04:13:39;26.63;;;25.13;;
33644;SDS011;19986;48.190;16.366;2022-08-03T04:16:15;26.10;;;24.58;;
33644;SDS011;19986;48.190;16.366;2022-08-03T04:18:45;23.60;;;22.30;;
33644;SDS011;19986;48.190;16.366;2022-08-03T04:21:15;24.85;;;23.65;;
33644;SDS011;19986;48.190;16.366;2022-08-03T04:23:45;25.30;;;23.90;;
33644;SDS011;19986;48.190;16.366;2022-08-03T04:26:14;25.02;;;23.60;;
33644;SDS011;19986;48.190;16.366;2022-08-03T04:28:48;24.73;;;23.45;;
33644;SDS011;19986;48.190;16.366;2022-08-03T04:31:16;25.80;;;24.10;;
33644;SDS011;19986;48.190;16.366;2022-08-03T04:33:45;25.67;;;24.42;;
33644;SDS011;19986;48.190;16.366;2022-08-03T04:36:13;25.70;;;24.13;;
33644;SDS011;19986;48.190;16.366;2022-08-03T04:39:04;25.75;;;24.20;;
33644;SDS011;19986;48.190;16.366;2022-08-03T04:41:29;26.75;;;25.25;;
33644;SDS011;19986;48.190;16.366;2022-08-03T04:43:57;26.08;;;24.58;;
33644;SDS011;19986;48.190;16.366;2022-08-03T04:46:28;26.00;;;24.45;;
33644;SDS011;19986;48.190;16.366;2022-08-03T04:48:58;27.00;;;25.27;;
33644;SDS011;19986;48.190;16.366;2022-08-03T04:51:26;26.67;;;24.83;;
33644;SDS011;19986;48.190;16.366;2022-08-03T04:53:52;26.38;;;24.98;;
33644;SDS011;19986;48.190;16.366;2022-08-03T04:56:18;24.80;;;23.17;;
33644;SDS011;19986;48.190;16.366;2022-08-03T04:58:44;25.40;;;24.10;;
33644;SDS011;19986;48.190;16.366;2022-08-03T05:01:10;24.95;;;23.55;;
33644;SDS011;19986;48.190;16.366;2022-08-03T05:03:36;26.92;;;25.30;;
33644;SDS011;19986;48.190;16.366;2022-08-03T05:06:02;25.58;;;23.80;;
33644;SDS011;19986;48.190;16.366;2022-08-03T05:08:28;26.55;;;24.92;;
33644;SDS011;19986;48.190;16.366;2022-08-03T05:10:55;25.90;;;23.88;;
33644;SDS011;19986;48.190;16.366;2022-08-03T05:13:21;26.30;;;24.52;;
33644;SDS011;19986;48.190;16.366;2022-08-03T05:15:47;25.58;;;24.17;;
33644;SDS011;19986;48.190;16.366;2022-08-03T05:18:13;26.08;;;24.48;;
33644;SDS011;19986;48.190;16.366;2022-08-03T05:20:39;26.83;;;25.33;;
33644;SDS011;19986;48.190;16.366;2022-08-03T05:23:05;25.92;;;24.52;;
33644;SDS011;19986;48.190;16.366;2022-08-03T05:25:31;25.48;;;24.08;;
33644;SDS011;19986;48.190;16.366;2022-08-03T05:27:57;25.75;;;24.38;;
33644;SDS011;19986;48.190;16.366;2022-08-03T05:30:23;24.60;;;23.20;;
33644;SDS011;19986;48.190;16.366;2022-08-03T05:32:48;25.70;;;24.15;;
33644;SDS011;19986;48.190;16.366;2022-08-03T05:35:14;25.00;;;23.40;;
33644;SDS011;19986;48.190;16.366;2022-08-03T05:37:40;26.48;;;24.92;;
33644;SDS011;19986;48.190;16.366;2022-08-03T05:40:06;24.42;;;23.02;;
33644;SDS011;19986;48.190;16.366;2022-08-03T05:42:32;26.50;;;24.65;;
33644;SDS011;19986;48.190;16.366;2022-08-03T05:45:05;26.50;;;24.98;;
33644;SDS011;19986;48.190;16.366;2022-08-03T05:47:45;24.63;;;23.33;;
33644;SDS011;19986;48.190;16.366;2022-08-03T05:50:12;24.25;;;22.55;;
33644;SDS011;19986;48.190;16.366;2022-08-03T05:52:39;24.90;;;23.33;;
33644;SDS011;19986;48.190;16.366;2022-08-03T05:55:07;25.17;;;23.65;;
33644;SDS011;19986;48.190;16.366;2022-08-03T05:57:33;25.35;;;23.75;;
33644;SDS011;19986;48.190;16.366;2022-08-03T06:00:00;24.85;;;23.27;;
33644;SDS011;19986;48.190;16.366;2022-08-03T06:02:29;24.52;;;22.80;;
33644;SDS011;19986;48.190;16.366;2022-08-03T06:04:55;23.50;;;22.17;;
33644;SDS011;19986;48.190;16.366;2022-08-03T06:07:22;24.65;;;23.13;;
33644;SDS011;19986;48.190;16.366;2022-08-03T06:09:48;23.60;;;22.40;;
33644;SDS011;19986;48.190;16.366;2022-08-03T06:12:14;25.85;;;24.10;;
33644;SDS011;19986;48.190;16.366;2022-08-03T06:14:40;25.50;;;23.85;;
33644;SDS011;19986;48.190;16.366;2022-08-03T06:17:05;24.50;;;23.00;;
33644;SDS011;19986;48.190;16.366;2022-08-03T06:19:31;24.58;;;23.35;;
33644;SDS011;19986;48.190;16.366;2022-08-03T06:21:57;26.45;;;24.70;;
33644;SDS011;19986;48.190;16.366;2022-08-03T06:24:23;25.75;;;24.15;;
33644;SDS011;19986;48.190;16.366;2022-08-03T06:26:49;24.17;;;22.45;;
33644;SDS011;19986;48.190;16.366;2022-08-03T06:29:15;25.65;;;24.23;;
33644;SDS011;19986;48.190;16.366;2022-08-03T06:31:41;24.13;;;22.33;;
33644;SDS011;19986;48.190;16.366;2022-08-03T06:34:06;25.65;;;24.15;;
33644;SDS011;19986;48.190;16.366;2022-08-03T06:36:32;25.08;;;23.58;;
33644;SDS011;19986;48.190;16.366;2022-08-03T06:38:58;24.00;;;22.63;;
33644;SDS011;19986;48.190;16.366;2022-08-03T06:41:25;25.13;;;23.70;;
33644;SDS011;19986;48.190;16.366;2022-08-03T06:43:51;24.83;;;23.27;;
33644;SDS011;19986;48.190;16.366;2022-08-03T06:46:17;25.67;;;23.83;;
33644;SDS011;19986;48.190;16.366;2022-08-03T06:48:43;25.77;;;23.92;;
33644;SDS011;19986;48.190;16.366;2022-08-03T06:51:09;26.15;;;24.35;;
33644;SDS011;19986;48.190;16.366;2022-08-03T06:53:35;25.02;;;23.40;;
33644;SDS011;19986;48.190;16.366;2022-08-03T06:56:01;27.15;;;25.45;;
33644;SDS011;19986;48.190;16.366;2022-08-03T06:58:29;25.95;;;24.08;;
33644;SDS011;19986;48.190;16.366;2022-08-03T07:00:55;27.27;;;25.35;;
33644;SDS011;19986;48.190;16.366;2022-08-03T07:03:21;26.38;;;24.40;;
33644;SDS011;19986;48.190;16.366;2022-08-03T07:05:47;26.73;;;24.77;;
33644;SDS011;19986;48.190;16.366;2022-08-03T07:08:14;26.45;;;24.30;;
33644;SDS011;19986;48.190;16.366;2022-08-03T07:10:40;24.00;;;22.17;;
33644;SDS011;19986;48.190;16.366;2022-08-03T07:13:06;23.98;;;22.27;;
33644;SDS011;19986;48.190;16.366;2022-08-03T07:15:31;27.15;;;25.13;;
33644;SDS011;19986;48.190;16.366;2022-08-03T07:17:58;26.20;;;24.40;;
33644;SDS011;19986;48.190;16.366;2022-08-03T07:20:24;25.38;;;23.52;;
33644;SDS011;19986;48.190;16.366;2022-08-03T07:22:53;23.65;;;22.25;;
33644;SDS011;19986;48.190;16.366;2022-08-03T07:25:22;23.00;;;21.42;;
33644;SDS011;19986;48.190;16.366;2022-08-03T07:27:48;23.13;;;21.90;;
33644;SDS011;19986;48.190;16.366;2022-08-03T07:30:14;24.77;;;23.35;;
33644;SDS011;19986;48.190;16.366;2022-08-03T07:32:41;23.75;;;22.23;;
33644;SDS011;19986;48.190;16.366;2022-08-03T07:35:07;23.77;;;22.33;;
33644;SDS011;19986;48.190;16.366;2022-08-03T07:37:35;22.17;;;20.83;;
33644;SDS011;19986;48.190;16.366;2022-08-03T07:40:02;25.73;;;23.92;;
33644;SDS011;19986;48.190;16.366;2022-08-03T07:42:30;23.10;;;21.85;;
33644;SDS011;19986;48.190;16.366;2022-08-03T07:44:57;22.67;;;21.25;;
33644;SDS011;19986;48.190;16.366;2022-08-03T07:47:24;23.70;;;22.50;;
33644;SDS011;19986;48.190;16.366;2022-08-03T07:49:52;23.67;;;22.40;;
33644;SDS011;19986;48.190;16.366;2022-08-03T07:52:18;23.10;;;21.90;;
33644;SDS011;19986;48.190;16.366;2022-08-03T07:55:03;23.38;;;21.77;;
33644;SDS011;19986;48.190;16.366;2022-08-03T07:57:30;24.20;;;22.80;;
33644;SDS011;19986;48.190;16.366;2022-08-03T07:59:56;22.85;;;21.65;;
33644;SDS011;19986;48.190;16.366;2022-08-03T08:02:22;24.50;;;23.08;;
33644;SDS011;19986;48.190;16.366;2022-08-03T08:04:48;22.60;;;21.50;;
33644;SDS011;19986;48.190;16.366;2022-08-03T08:07:14;22.23;;;21.02;;
33644;SDS011;19986;48.190;16.366;2022-08-03T08:09:41;23.02;;;21.52;;
33644;SDS011;19986;48.190;16.366;2022-08-03T08:12:07;23.48;;;21.80;;
33644;SDS011;19986;48.190;16.366;2022-08-03T08:14:34;22.98;;;21.35;;
33644;SDS011;19986;48.190;16.366;2022-08-03T08:17:00;22.85;;;21.65;;
33644;SDS011;19986;48.190;16.366;2022-08-03T08:19:26;21.35;;;20.13;;
33644;SDS011;19986;48.190;16.366;2022-08-03T08:21:52;23.77;;;22.25;;
33644;SDS011;19986;48.190;16.366;2022-08-03T08:24:18;21.42;;;20.30;;
33644;SDS011;19986;48.190;16.366;2022-08-03T08:26:44;20.90;;;19.77;;
33644;SDS011;19986;48.190;16.366;2022-08-03T08:29:10;23.10;;;21.90;;
33644;SDS011;19986;48.190;16.366;2022-08-03T08:31:36;23.13;;;21.88;;
33644;SDS011;19986;48.190;16.366;2022-08-03T08:34:02;21.60;;;20.45;;
33644;SDS011;19986;48.190;16.366;2022-08-03T08:36:31;22.38;;;21.15;;
33644;SDS011;19986;48.190;16.366;2022-08-03T08:38:57;21.33;;;20.02;;
33644;SDS011;19986;48.190;16.366;2022-08-03T08:41:23;21.27;;;20.08;;
33644;SDS011;19986;48.190;16.366;2022-08-03T08:43:49;21.27;;;19.92;;
33644;SDS011;19986;48.190;16.366;2022-08-03T08:46:15;23.40;;;22.00;;
33644;SDS011;19986;48.190;16.366;2022-08-03T08:48:42;22.85;;;21.60;;
33644;SDS011;19986;48.190;16.366;2022-08-03T08:51:11;23.67;;;22.30;;
33644;SDS011;19986;48.190;16.366;2022-08-03T08:53:37;21.65;;;20.30;;
33644;SDS011;19986;48.190;16.366;2022-08-03T08:56:08;21.92;;;20.80;;
33644;SDS011;19986;48.190;16.366;2022-08-03T08:58:41;24.05;;;22.75;;
33644;SDS011;19986;48.190;16.366;2022-08-03T09:01:11;22.67;;;21.27;;
33644;SDS011;19986;48.190;16.366;2022-08-03T09:03:37;21.77;;;20.50;;
33644;SDS011;19986;48.190;16.366;2022-08-03T09:06:03;22.90;;;21.35;;
33644;SDS011;19986;48.190;16.366;2022-08-03T09:08:29;23.42;;;21.80;;
33644;SDS011;19986;48.190;16.366;2022-08-03T09:10:57;22.48;;;21.17;;
33644;SDS011;19986;48.190;16.366;2022-08-03T09:13:23;22.92;;;21.55;;
33644;SDS011;19986;48.190;16.366;2022-08-03T09:16:07;21.90;;;20.63;;
33644;SDS011;19986;48.190;16.366;2022-08-03T09:18:42;22.45;;;21.33;;
33644;SDS011;19986;48.190;16.366;2022-08-03T09:21:13;22.10;;;21.00;;
33644;SDS011;19986;48.190;16.366;2022-08-03T09:23:54;22.08;;;20.85;;
33644;SDS011;19986;48.190;16.366;2022-08-03T09:26:23;21.55;;;20.52;;
33644;SDS011;19986;48.190;16.366;2022-08-03T09:29:14;21.25;;;20.15;;
33644;SDS011;19986;48.190;16.366;2022-08-03T09:31:45;21.83;;;20.40;;
33644;SDS011;19986;48.190;16.366;2022-08-03T09:34:11;21.50;;;20.40;;
33644;SDS011;19986;48.190;16.366;2022-08-03T09:36:45;21.40;;;20.40;;
33644;SDS011;19986;48.190;16.366;2022-08-03T09:39:16;20.55;;;19.55;;
33644;SDS011;19986;48.190;16.366;2022-08-03T09:41:48;20.52;;;19.20;;
33644;SDS011;19986;48.190;16.366;2022-08-03T09:47:12;21.13;;;20.02;;
33644;SDS011;19986;48.190;16.366;2022-08-03T09:49:39;21.30;;;20.20;;
33644;SDS011;19986;48.190;16.366;2022-08-03T09:52:17;21.30;;;20.20;;
33644;SDS011;19986;48.190;16.366;2022-08-03T09:54:50;21.08;;;20.08;;
33644;SDS011;19986;48.190;16.366;2022-08-03T09:57:21;20.55;;;19.55;;
33644;SDS011;19986;48.190;16.366;2022-08-03T09:59:47;20.75;;;19.65;;
33644;SDS011;19986;48.190;16.366;2022-08-03T10:02:24;21.15;;;19.95;;
33644;SDS011;19986;48.190;16.366;2022-08-03T10:04:52;20.85;;;19.65;;
33644;SDS011;19986;48.190;16.366;2022-08-03T10:07:19;19.95;;;18.88;;
33644;SDS011;19986;48.190;16.366;2022-08-03T10:09:55;19.95;;;18.95;;
33644;SDS011;19986;48.190;16.366;2022-08-03T10:12:25;20.42;;;19.33;;
33644;SDS011;19986;48.190;16.366;2022-08-03T10:14:52;18.92;;;18.08;;
33644;SDS011;19986;48.190;16.366;2022-08-03T10:17:19;20.25;;;19.17;;
33644;SDS011;19986;48.190;16.366;2022-08-03T10:19:45;18.13;;;17.13;;
33644;SDS011;19986;48.190;16.366;2022-08-03T10:24:39;19.48;;;18.33;;
33644;SDS011;19986;48.190;16.366;2022-08-03T10:27:11;18.88;;;17.98;;
33644;SDS011;19986;48.190;16.366;2022-08-03T10:29:43;18.95;;;17.95;;
33644;SDS011;19986;48.190;16.366;2022-08-03T10:32:17;19.40;;;18.40;;
33644;SDS011;19986;48.190;16.366;2022-08-03T10:34:55;19.20;;;18.30;;
33644;SDS011;19986;48.190;16.366;2022-08-03T10:37:29;18.80;;;17.63;;
33644;SDS011;19986;48.190;16.366;2022-08-03T10:39:56;19.48;;;18.48;;
33644;SDS011;19986;48.190;16.366;2022-08-03T10:42:25;21.02;;;19.92;;
33644;SDS011;19986;48.190;16.366;2022-08-03T10:44:55;20.75;;;19.63;;
33644;SDS011;19986;48.190;16.366;2022-08-03T10:47:30;20.25;;;19.02;;
33644;SDS011;19986;48.190;16.366;2022-08-03T10:49:57;21.58;;;20.20;;
33644;SDS011;19986;48.190;16.366;2022-08-03T10:52:24;20.25;;;19.20;;
33644;SDS011;19986;48.190;16.366;2022-08-03T10:54:50;19.33;;;18.42;;
33644;SDS011;19986;48.190;16.366;2022-08-03T10:57:44;19.42;;;18.23;;
33644;SDS011;19986;48.190;16.366;2022-08-03T11:03:05;19.90;;;18.90;;
33644;SDS011;19986;48.190;16.366;2022-08-03T11:05:40;19.92;;;18.92;;
33644;SDS011;19986;48.190;16.366;2022-08-03T11:08:17;21.10;;;20.00;;
33644;SDS011;19986;48.190;16.366;2022-08-03T11:10:58;21.42;;;20.20;;
33644;SDS011;19986;48.190;16.366;2022-08-03T11:13:27;20.60;;;19.60;;
33644;SDS011;19986;48.190;16.366;2022-08-03T11:15:58;20.13;;;18.92;;
33644;SDS011;19986;48.190;16.366;2022-08-03T11:18:26;19.83;;;18.85;;
33644;SDS011;19986;48.190;16.366;2022-08-03T11:20:55;20.70;;;19.25;;
33644;SDS011;19986;48.190;16.366;2022-08-03T11:23:42;20.02;;;19.13;;
33644;SDS011;19986;48.190;16.366;2022-08-03T11:26:10;20.40;;;19.27;;
33644;SDS011;19986;48.190;16.366;2022-08-03T11:28:38;20.40;;;19.33;;
33644;SDS011;19986;48.190;16.366;2022-08-03T11:34:05;20.25;;;19.13;;
33644;SDS011;19986;48.190;16.366;2022-08-03T11:37:17;19.80;;;18.80;;
33644;SDS011;19986;48.190;16.366;2022-08-03T11:39:42;19.58;;;18.58;;
33644;SDS011;19986;48.190;16.366;2022-08-03T11:44:48;19.40;;;18.42;;
33644;SDS011;19986;48.190;16.366;2022-08-03T11:47:16;20.13;;;19.05;;
33644;SDS011;19986;48.190;16.366;2022-08-03T11:49:45;19.25;;;18.35;;
33644;SDS011;19986;48.190;16.366;2022-08-03T11:52:12;20.33;;;19.10;;
33644;SDS011;19986;48.190;16.366;2022-08-03T11:54:38;20.35;;;18.85;;
33644;SDS011;19986;48.190;16.366;2022-08-03T11:57:05;20.42;;;19.27;;
33644;SDS011;19986;48.190;16.366;2022-08-03T11:59:31;21.40;;;20.30;;
33644;SDS011;19986;48.190;16.366;2022-08-03T12:02:07;19.73;;;18.63;;
33644;SDS011;19986;48.190;16.366;2022-08-03T12:07:24;19.25;;;18.35;;
33644;SDS011;19986;48.190;16.366;2022-08-03T12:10:05;20.50;;;19.30;;
33644;SDS011;19986;48.190;16.366;2022-08-03T12:12:36;20.27;;;19.17;;
33644;SDS011;19986;48.190;16.366;2022-08-03T12:15:03;20.80;;;19.50;;
33644;SDS011;19986;48.190;16.366;2022-08-03T12:17:37;19.35;;;18.25;;
33644;SDS011;19986;48.190;16.366;2022-08-03T12:20:06;21.25;;;19.73;;
33644;SDS011;19986;48.190;16.366;2022-08-03T12:22:34;21.35;;;19.67;;
33644;SDS011;19986;48.190;16.366;2022-08-03T12:25:04;20.60;;;19.45;;
33644;SDS011;19986;48.190;16.366;2022-08-03T12:27:31;21.25;;;20.25;;
33644;SDS011;19986;48.190;16.366;2022-08-03T12:29:57;20.77;;;19.58;;
33644;SDS011;19986;48.190;16.366;2022-08-03T12:32:29;20.65;;;19.65;;
33644;SDS011;19986;48.190;16.366;2022-08-03T12:34:56;20.65;;;19.48;;
33644;SDS011;19986;48.190;16.366;2022-08-03T12:37:28;19.75;;;18.75;;
33644;SDS011;19986;48.190;16.366;2022-08-03T12:39:55;19.60;;;18.50;;
33644;SDS011;19986;48.190;16.366;2022-08-03T12:42:31;21.15;;;20.05;;
33644;SDS011;19986;48.190;16.366;2022-08-03T12:44:58;19.70;;;18.60;;
33644;SDS011;19986;48.190;16.366;2022-08-03T12:47:24;19.70;;;18.48;;
33644;SDS011;19986;48.190;16.366;2022-08-03T12:49:53;19.77;;;18.73;;
33644;SDS011;19986;48.190;16.366;2022-08-03T12:52:19;19.42;;;18.30;;
33644;SDS011;19986;48.190;16.366;2022-08-03T12:54:53;19.17;;;18.20;;
33644;SDS011;19986;48.190;16.366;2022-08-03T12:57:20;19.88;;;18.88;;
33644;SDS011;19986;48.190;16.366;2022-08-03T12:59:46;20.30;;;19.35;;
33644;SDS011;19986;48.190;16.366;2022-08-03T13:04:49;19.98;;;18.85;;
33644;SDS011;19986;48.190;16.366;2022-08-03T13:07:16;20.73;;;19.70;;
33644;SDS011;19986;48.190;16.366;2022-08-03T13:12:13;20.60;;;19.38;;
33644;SDS011;19986;48.190;16.366;2022-08-03T13:14:39;20.60;;;19.60;;
33644;SDS011;19986;48.190;16.366;2022-08-03T13:17:10;20.55;;;19.40;;
33644;SDS011;19986;48.190;16.366;2022-08-03T13:19:36;19.52;;;18.52;;
33644;SDS011;19986;48.190;16.366;2022-08-03T13:22:37;20.65;;;19.55;;
33644;SDS011;19986;48.190;16.366;2022-08-03T13:24:57;19.63;;;18.67;;
33644;SDS011;19986;48.190;16.366;2022-08-03T13:27:25;21.00;;;20.00;;
33644;SDS011;19986;48.190;16.366;2022-08-03T13:29:53;19.60;;;18.40;;
33644;SDS011;19986;48.190;16.366;2022-08-03T13:32:19;18.98;;;17.95;;
33644;SDS011;19986;48.190;16.366;2022-08-03T13:34:45;21.05;;;19.88;;
33644;SDS011;19986;48.190;16.366;2022-08-03T13:37:12;20.95;;;19.77;;
33644;SDS011;19986;48.190;16.366;2022-08-03T13:39:38;21.55;;;20.15;;
33644;SDS011;19986;48.190;16.366;2022-08-03T13:42:05;19.75;;;18.83;;
33644;SDS011;19986;48.190;16.366;2022-08-03T13:44:32;19.58;;;18.48;;
33644;SDS011;19986;48.190;16.366;2022-08-03T13:46:58;19.73;;;18.83;;
33644;SDS011;19986;48.190;16.366;2022-08-03T13:49:28;20.70;;;19.70;;
33644;SDS011;19986;48.190;16.366;2022-08-03T13:51:54;20.63;;;19.42;;
33644;SDS011;19986;48.190;16.366;2022-08-03T13:54:20;19.38;;;18.48;;
33644;SDS011;19986;48.190;16.366;2022-08-03T13:56:46;19.58;;;18.50;;
33644;SDS011;19986;48.190;16.366;2022-08-03T13:59:19;21.13;;;19.83;;
33644;SDS011;19986;48.190;16.366;2022-08-03T14:01:49;21.23;;;20.02;;
33644;SDS011;19986;48.190;16.366;2022-08-03T14:04:16;20.83;;;19.80;;
33644;SDS011;19986;48.190;16.366;2022-08-03T14:06:42;20.40;;;19.23;;
33644;SDS011;19986;48.190;16.366;2022-08-03T14:09:11;19.92;;;19.02;;
33644;SDS011;19986;48.190;16.366;2022-08-03T14:11:39;20.58;;;19.55;;
33644;SDS011;19986;48.190;16.366;2022-08-03T14:14:06;21.48;;;20.48;;
33644;SDS011;19986;48.190;16.366;2022-08-03T14:16:32;21.00;;;19.90;;
33644;SDS011;19986;48.190;16.366;2022-08-03T14:18:58;19.98;;;18.95;;
33644;SDS011;19986;48.190;16.366;2022-08-03T14:21:24;20.65;;;19.45;;
33644;SDS011;19986;48.190;16.366;2022-08-03T14:23:50;21.10;;;20.00;;
33644;SDS011;19986;48.190;16.366;2022-08-03T14:26:16;19.55;;;18.42;;
33644;SDS011;19986;48.190;16.366;2022-08-03T14:28:43;20.92;;;19.73;;
33644;SDS011;19986;48.190;16.366;2022-08-03T14:31:09;20.98;;;19.90;;
33644;SDS011;19986;48.190;16.366;2022-08-03T14:33:35;19.85;;;18.73;;
33644;SDS011;19986;48.190;16.366;2022-08-03T14:36:01;20.27;;;18.88;;
33644;SDS011;19986;48.190;16.366;2022-08-03T14:38:27;20.30;;;18.88;;
33644;SDS011;19986;48.190;16.366;2022-08-03T14:40:53;21.48;;;20.17;;
33644;SDS011;19986;48.190;16.366;2022-08-03T14:43:19;19.88;;;18.70;;
33644;SDS011;19986;48.190;16.366;2022-08-03T14:45:46;20.40;;;19.50;;
33644;SDS011;19986;48.190;16.366;2022-08-03T14:48:12;20.38;;;19.02;;